Time;durP1;ratioP1;P1;durP2;ratioP2;P2;SDS_P1;SDS_P2;PMS_P1;PMS_P2;Temp;Humidity;BMP_temperature;BMP_pressure;BME280_temperature;BME280_humidity;BME280_pressure;Samples;Min_cycle;Max_cycle;Signal;HPM_P1;HPM_P2
2022/03/07 00:01:38;;;;;;;;;68.00;51.75;;;;;5.30;100.00;101843.25;5100497;27;45166;-79
2022/03/07 00:04:03;;;;;;;;;64.75;51.00;;;;;5.31;98.63;101836.91;5070949;28;45278;-81
2022/03/07 00:06:29;;;;;;;;;67.25;51.75;;;;;4.93;98.16;101777.75;5097170;27;45163;-78
2022/03/07 00:08:55;;;;;;;;;60.50;49.00;;;;;5.06;99.99;101789.06;5088343;27;44949;-78
2022/03/07 00:11:20;;;;;;;;;62.00;48.00;;;;;5.33;98.65;101825.19;5102567;27;44980;-78
2022/03/07 00:13:46;;;;;;;;;67.50;53.50;;;;;5.35;100.00;101819.72;5090130;27;44998;-79
2022/03/07 00:16:12;;;;;;;;;59.50;47.00;;;;;3.96;98.16;101586.53;5095336;27;46278;-79
2022/03/07 00:18:38;;;;;;;;;57.25;47.75;;;;;4.96;100.00;101757.91;5113005;27;44822;-78
2022/03/07 00:21:05;;;;;;;;;57.25;46.75;;;;;4.75;100.00;101724.38;5102335;27;45104;-80
2022/03/07 00:23:31;;;;;;;;;60.50;45.25;;;;;4.63;100.00;101716.63;5101492;27;45299;-78
2022/03/07 00:25:57;;;;;;;;;56.75;45.25;;;;;5.26;100.00;101825.38;5105212;27;45489;-77
2022/03/07 00:28:22;;;;;;;;;54.25;45.50;;;;;5.19;100.00;101821.97;5093507;27;45239;-79
2022/03/07 00:30:48;;;;;;;;;59.25;46.75;;;;;4.96;100.00;101809.09;5099466;27;45107;-78
2022/03/07 00:33:16;;;;;;;;;59.75;46.25;;;;;4.73;100.00;101758.56;5072480;28;45232;-78
2022/03/07 00:35:42;;;;;;;;;65.00;47.50;;;;;4.05;100.00;101643.66;5101412;27;45196;-78
2022/03/07 00:38:08;;;;;;;;;57.50;47.75;;;;;5.18;100.00;101834.56;5100791;27;45489;-78
2022/03/07 00:40:33;;;;;;;;;58.50;45.00;;;;;4.83;100.00;101781.63;5090920;27;45307;-79
2022/03/07 00:42:59;;;;;;;;;65.50;49.75;;;;;4.67;100.00;101756.03;5096874;27;45226;-78
2022/03/07 00:45:24;;;;;;;;;59.00;47.00;;;;;4.49;100.00;101752.00;5090136;27;45624;-79
2022/03/07 00:47:50;;;;;;;;;63.50;47.75;;;;;3.93;100.00;101651.16;5069294;28;45046;-78
2022/03/07 00:50:15;;;;;;;;;62.75;48.50;;;;;4.42;100.00;101740.50;5088505;27;45147;-78
2022/03/07 00:52:40;;;;;;;;;53.25;44.25;;;;;4.93;100.00;101845.13;5087938;27;45049;-77
2022/03/07 00:55:07;;;;;;;;;63.00;45.25;;;;;4.91;100.00;101848.75;5070477;28;47450;-78
2022/03/07 00:57:32;;;;;;;;;62.75;48.75;;;;;4.21;100.00;101710.53;5108499;27;45184;-78
2022/03/07 00:59:57;;;;;;;;;56.75;45.75;;;;;4.26;100.00;101717.59;5118043;27;45151;-78
2022/03/07 01:02:23;;;;;;;;;59.00;47.50;;;;;4.58;100.00;101780.50;5096923;27;44973;-79
2022/03/07 01:04:48;;;;;;;;;56.00;41.75;;;;;4.15;100.00;101703.50;5122540;27;45595;-78
2022/03/07 01:07:14;;;;;;;;;60.00;45.00;;;;;4.56;100.00;101776.94;5108151;27;45179;-78
2022/03/07 01:09:39;;;;;;;;;58.75;46.75;;;;;4.82;100.00;101833.75;5120021;27;45027;-78
2022/03/07 01:12:05;;;;;;;;;51.00;43.25;;;;;3.59;100.00;101625.09;5108015;27;44977;-78
2022/03/07 01:14:30;;;;;;;;;61.00;49.00;;;;;4.79;100.00;101835.63;5121197;27;45246;-78
2022/03/07 01:16:56;;;;;;;;;54.00;45.25;;;;;4.57;100.00;101800.28;5095086;27;45279;-77
2022/03/07 01:19:21;;;;;;;;;61.25;47.50;;;;;3.84;100.00;101692.63;5108629;27;45277;-77
2022/03/07 01:21:46;;;;;;;;;58.75;47.00;;;;;3.53;100.00;101634.19;5115222;27;45223;-78
2022/03/07 01:24:12;;;;;;;;;62.50;44.00;;;;;4.33;100.00;101774.84;5118715;27;45203;-77
2022/03/07 01:26:38;;;;;;;;;59.00;46.00;;;;;4.61;100.00;101831.56;5132174;27;45121;-77
2022/03/07 01:29:04;;;;;;;;;52.00;42.00;;;;;4.23;100.00;101758.03;5126344;27;45162;-78
2022/03/07 01:31:29;;;;;;;;;61.25;44.25;;;;;4.00;100.00;101715.53;5131990;27;45264;-78
2022/03/07 01:33:55;;;;;;;;;58.50;46.50;;;;;4.57;100.00;101811.06;5128519;27;45823;-77
2022/03/07 01:36:20;;;;;;;;;39.50;32.50;;;;;4.47;100.00;101791.53;5102491;27;45129;-78
2022/03/07 01:38:45;;;;;;;;;61.75;48.50;;;;;2.80;100.00;101515.91;5120516;27;45261;-78
2022/03/07 01:41:11;;;;;;;;;55.75;46.25;;;;;4.67;100.00;101820.66;5126843;27;45263;-75
2022/03/07 01:43:37;;;;;;;;;61.50;48.25;;;;;4.66;100.00;101814.41;5115104;27;45270;-75
2022/03/07 01:46:02;;;;;;;;;54.00;42.00;;;;;4.30;100.00;101758.75;5107405;27;45059;-79
2022/03/07 01:48:27;;;;;;;;;49.00;42.25;;;;;4.55;100.00;101804.81;5124385;27;45096;-77
2022/03/07 01:50:54;;;;;;;;;55.50;47.25;;;;;4.05;100.00;101723.50;5132315;27;45111;-77
2022/03/07 01:53:21;;;;;;;;;59.75;44.00;;;;;4.37;100.00;101782.81;5128909;27;45670;-78
2022/03/07 01:55:47;;;;;;;;;60.50;44.25;;;;;3.69;100.00;101672.34;5117265;27;45022;-80
2022/03/07 01:58:12;;;;;;;;;49.25;42.25;;;;;4.00;100.00;101723.59;5115329;27;45112;-77
2022/03/07 02:00:39;;;;;;;;;53.50;42.00;;;;;4.49;100.00;101808.53;5119724;27;45179;-77
2022/03/07 02:03:05;;;;;;;;;56.50;44.00;;;;;4.23;100.00;101754.47;5112544;27;45655;-77
2022/03/07 02:05:31;;;;;;;;;63.25;46.25;;;;;4.52;100.00;101808.47;5119974;27;45184;-77
2022/03/07 02:07:57;;;;;;;;;52.50;43.25;;;;;3.36;100.00;101609.53;5117976;27;45119;-78
2022/03/07 02:10:27;;;;;;;;;47.25;40.75;;;;;4.06;100.00;101736.06;5119976;27;45252;-77
2022/03/07 02:12:53;;;;;;;;;52.50;43.00;;;;;3.79;100.00;101705.28;5110294;27;45118;-77
2022/03/07 02:15:18;;;;;;;;;51.25;41.75;;;;;4.34;100.00;101799.03;5116601;27;45091;-77
2022/03/07 02:17:45;;;;;;;;;49.75;41.50;;;;;4.33;100.00;101788.31;5127169;27;45859;-79
2022/03/07 02:20:11;;;;;;;;;60.75;47.25;;;;;2.36;100.00;101446.22;5118824;27;45148;-81
2022/03/07 02:22:36;;;;;;;;;48.50;40.00;;;;;2.99;100.00;101551.28;5116541;27;45571;-80
2022/03/07 02:25:02;;;;;;;;;46.25;41.50;;;;;3.19;100.00;101584.84;5131428;27;45191;-80
2022/03/07 02:27:27;;;;;;;;;59.75;45.00;;;;;4.15;100.00;101755.53;5132120;27;45294;-80
2022/03/07 02:29:53;;;;;;;;;56.25;43.25;;;;;4.32;100.00;101784.72;5124491;27;45094;-78
2022/03/07 02:32:18;;;;;;;;;54.25;44.25;;;;;3.62;100.00;101650.13;5130016;27;45321;-78
2022/03/07 02:34:43;;;;;;;;;48.50;40.75;;;;;3.57;100.00;101648.47;5128620;27;44918;-79
2022/03/07 02:37:09;;;;;;;;;49.75;42.00;;;;;4.11;100.00;101747.59;5124046;27;45332;-79
2022/03/07 02:39:34;;;;;;;;;48.25;38.00;;;;;4.28;100.00;101777.66;5126572;27;45134;-78
2022/03/07 02:42:00;;;;;;;;;53.75;42.50;;;;;3.42;100.00;101644.31;5122338;27;44994;-77
2022/03/07 02:44:25;;;;;;;;;55.00;42.50;;;;;3.88;100.00;101719.41;5109912;27;45092;-77
2022/03/07 02:46:50;;;;;;;;;46.25;40.50;;;;;3.69;100.00;101671.47;5119160;27;45153;-78
2022/03/07 02:49:16;;;;;;;;;57.00;45.00;;;;;4.20;100.00;101778.75;5119184;27;45460;-77
2022/03/07 02:51:42;;;;;;;;;47.00;40.75;;;;;3.50;100.00;101647.72;5126991;27;45045;-78
2022/03/07 02:54:07;;;;;;;;;46.75;40.75;;;;;3.65;100.00;101662.63;5131637;27;45308;-77
2022/03/07 02:56:33;;;;;;;;;49.25;39.25;;;;;3.82;100.00;101689.97;5130754;27;45057;-77
2022/03/07 02:58:58;;;;;;;;;50.75;42.25;;;;;3.62;100.00;101668.94;5124420;27;45192;-78
2022/03/07 03:01:24;;;;;;;;;51.50;44.00;;;;;3.76;100.00;101686.56;5117246;27;45463;-77
2022/03/07 03:03:49;;;;;;;;;53.25;44.50;;;;;3.70;100.00;101687.59;5110033;27;45190;-77
2022/03/07 03:06:15;;;;;;;;;51.75;39.00;;;;;3.46;100.00;101639.75;5110298;27;45259;-78
2022/03/07 03:08:40;;;;;;;;;44.25;39.50;;;;;4.06;100.00;101744.13;5113896;27;45125;-78
2022/03/07 03:11:05;;;;;;;;;47.00;38.50;;;;;4.12;100.00;101762.81;5118033;27;45158;-77
2022/03/07 03:13:31;;;;;;;;;55.50;44.50;;;;;4.12;100.00;101754.72;5121925;27;45388;-78
2022/03/07 03:15:56;;;;;;;;;51.75;39.75;;;;;4.14;100.00;101760.94;5118705;27;45217;-78
2022/03/07 03:18:23;;;;;;;;;52.00;40.25;;;;;2.70;100.00;101514.34;5116020;27;45198;-77
2022/03/07 03:20:50;;;;;;;;;49.75;39.50;;;;;3.99;100.00;101732.59;5124020;27;45078;-78
2022/03/07 03:23:17;;;;;;;;;57.50;42.00;;;;;3.94;100.00;101718.38;5116312;27;45268;-78
2022/03/07 03:25:42;;;;;;;;;52.75;42.50;;;;;4.09;100.00;101752.97;5114272;27;45128;-77
2022/03/07 03:28:08;;;;;;;;;52.50;42.00;;;;;4.07;100.00;101751.25;5113141;27;45422;-77
2022/03/07 03:30:34;;;;;;;;;46.00;40.50;;;;;3.84;100.00;101711.44;5102817;27;47390;-77
2022/03/07 03:32:59;;;;;;;;;48.25;41.00;;;;;3.95;100.00;101736.28;5109817;27;45355;-78
2022/03/07 03:35:25;;;;;;;;;43.50;40.25;;;;;4.01;100.00;101760.38;5110256;27;45171;-78
2022/03/07 03:37:51;;;;;;;;;49.50;42.00;;;;;3.97;100.00;101741.66;5113036;27;45211;-76
2022/03/07 03:40:17;;;;;;;;;41.75;37.50;;;;;4.00;100.00;101752.31;5109523;27;45592;-77
2022/03/07 03:42:42;;;;;;;;;52.50;39.75;;;;;3.54;100.00;101670.03;5109558;27;45419;-77
2022/03/07 03:45:09;;;;;;;;;42.25;39.25;;;;;3.97;100.00;101752.41;5109551;27;45099;-77
2022/03/07 03:47:43;;;;;;;;;33.50;31.75;;;;;3.95;100.00;101763.19;5113595;27;45394;-77
2022/03/07 03:50:11;;;;;;;;;46.25;41.25;;;;;3.74;100.00;101729.59;5109178;27;45526;-78
2022/03/07 03:52:37;;;;;;;;;50.00;39.75;;;;;3.81;100.00;101757.25;5109260;27;45073;-77
2022/03/07 03:55:04;;;;;;;;;45.00;40.25;;;;;3.69;100.00;101730.63;5108809;27;45145;-77
2022/03/07 03:57:30;;;;;;;;;52.50;40.25;;;;;2.66;100.00;101552.91;5123994;27;45154;-77
2022/03/07 03:59:55;;;;;;;;;46.00;39.25;;;;;3.78;100.00;101757.31;5099794;27;47376;-76
2022/03/07 04:02:21;;;;;;;;;43.25;39.50;;;;;2.94;100.00;101617.66;5118203;27;45258;-76
2022/03/07 04:04:46;;;;;;;;;53.50;40.50;;;;;3.05;100.00;101637.09;5109783;27;46107;-75
2022/03/07 04:07:12;;;;;;;;;44.75;40.75;;;;;3.61;100.00;101746.97;5108828;27;45166;-77
2022/03/07 04:09:37;;;;;;;;;48.50;39.25;;;;;2.77;100.00;101614.41;5112641;27;45539;-77
2022/03/07 04:12:03;;;;;;;;;45.75;41.00;;;;;2.58;100.00;101565.59;5117977;27;45030;-78
2022/03/07 04:14:28;;;;;;;;;41.00;36.25;;;;;3.69;100.00;101763.78;5109465;27;45151;-78
2022/03/07 04:16:54;;;;;;;;;54.25;42.75;;;;;3.68;100.00;101766.50;5113342;27;45092;-76
2022/03/07 04:19:20;;;;;;;;;47.75;42.00;;;;;2.93;100.00;101640.03;5110527;27;45541;-78
2022/03/07 04:21:45;;;;;;;;;48.00;40.50;;;;;3.68;100.00;101766.50;5112229;27;45266;-77
2022/03/07 04:24:12;;;;;;;;;48.00;40.50;;;;;3.10;100.00;101678.19;5127482;27;45092;-79
2022/03/07 04:26:39;;;;;;;;;44.50;39.75;;;;;2.84;100.00;101624.13;5117480;27;45244;-78
2022/03/07 04:29:08;;;;;;;;;46.75;43.00;;;;;2.89;100.00;101651.78;5114629;27;45683;-78
2022/03/07 04:31:38;;;;;;;;;47.50;42.25;;;;;3.63;100.00;101764.81;5109832;27;45453;-78
2022/03/07 04:34:05;;;;;;;;;54.50;42.50;;;;;3.01;100.00;101658.69;5111957;27;45208;-78
2022/03/07 04:36:30;;;;;;;;;45.75;42.25;;;;;3.66;100.00;101769.25;5118824;27;45263;-78
2022/03/07 04:38:56;;;;;;;;;61.00;43.25;;;;;2.71;100.00;101606.50;5094167;27;47140;-78
2022/03/07 04:41:21;;;;;;;;;46.00;42.00;;;;;2.59;100.00;101603.16;5129137;27;45025;-76
2022/03/07 04:43:47;;;;;;;;;51.25;41.75;;;;;2.63;100.00;101617.38;5129931;27;45325;-77
2022/03/07 04:46:12;;;;;;;;;53.50;43.00;;;;;3.53;100.00;101765.03;5128087;27;44950;-76
2022/03/07 04:48:38;;;;;;;;;47.25;36.75;;;;;3.35;100.00;101742.16;5124532;27;45025;-77
2022/03/07 04:51:04;;;;;;;;;49.50;39.00;;;;;3.56;100.00;101770.38;5129341;27;45072;-77
2022/03/07 04:53:30;;;;;;;;;46.25;40.00;;;;;1.41;100.00;101415.97;5129620;27;45144;-77
2022/03/07 04:55:55;;;;;;;;;31.00;25.00;;;;;2.61;100.00;101605.81;5130736;27;45224;-75
2022/03/07 04:58:21;;;;;;;;;49.50;36.25;;;;;2.61;100.00;101611.16;5131167;27;45437;-77
2022/03/07 05:00:46;;;;;;;;;46.25;39.00;;;;;3.31;100.00;101732.38;5122222;27;45230;-76
2022/03/07 05:03:11;;;;;;;;;50.25;41.75;;;;;2.97;100.00;101706.19;5097007;27;45176;-77
2022/03/07 05:05:37;;;;;;;;;49.00;42.25;;;;;1.59;100.00;101439.75;5123858;27;45575;-78
2022/03/07 05:08:02;;;;;;;;;52.50;40.00;;;;;3.27;100.00;101727.97;5133297;27;45563;-77
2022/03/07 05:10:28;;;;;;;;;47.25;42.50;;;;;3.03;100.00;101705.19;5116868;27;45138;-77
2022/03/07 05:12:53;;;;;;;;;48.00;39.50;;;;;1.50;100.00;101446.16;5129200;27;45214;-78
2022/03/07 05:15:18;;;;;;;;;45.25;38.75;;;;;3.18;100.00;101734.41;5113791;27;45310;-77
2022/03/07 05:17:46;;;;;;;;;56.50;42.75;;;;;3.41;100.00;101781.44;5115682;27;45644;-77
2022/03/07 05:20:12;;;;;;;;;44.00;40.50;;;;;2.27;100.00;101601.09;5111501;27;45218;-76
2022/03/07 05:22:42;;;;;;;;;49.25;41.50;;;;;3.21;100.00;101749.59;5118840;27;45168;-77
2022/03/07 05:25:08;;;;;;;;;46.75;41.25;;;;;3.34;100.00;101778.88;5113015;27;45175;-77
2022/03/07 05:27:35;;;;;;;;;61.75;46.00;;;;;3.32;100.00;101775.34;5110664;27;46917;-77
2022/03/07 05:30:01;;;;;;;;;51.75;39.50;;;;;3.30;100.00;101776.28;5131569;27;45334;-77
2022/03/07 05:32:26;;;;;;;;;45.50;37.75;;;;;3.26;100.00;101771.91;5130179;27;45156;-78
2022/03/07 05:34:52;;;;;;;;;53.25;43.00;;;;;1.85;100.00;101538.44;5096512;27;45230;-77
2022/03/07 05:37:17;;;;;;;;;56.50;43.00;;;;;3.08;100.00;101755.22;5118114;27;45638;-77
2022/03/07 05:39:42;;;;;;;;;58.00;43.25;;;;;2.57;100.00;101666.72;5121231;27;45120;-77
2022/03/07 05:42:08;;;;;;;;;44.25;40.00;;;;;3.28;100.00;101786.19;5118698;27;45144;-77
2022/03/07 05:44:33;;;;;;;;;47.25;41.50;;;;;3.22;100.00;101775.56;5121498;27;45171;-76
2022/03/07 05:46:58;;;;;;;;;48.00;41.00;;;;;2.65;100.00;101682.69;5112858;27;45172;-77
2022/03/07 05:49:24;;;;;;;;;56.25;43.75;;;;;2.71;100.00;101695.09;5094351;27;46048;-76
2022/03/07 05:51:49;;;;;;;;;55.25;44.25;;;;;3.13;100.00;101771.25;5111509;27;45171;-77
2022/03/07 05:54:15;;;;;;;;;48.50;40.00;;;;;3.12;100.00;101770.34;5122868;27;45378;-78
2022/03/07 05:56:40;;;;;;;;;48.75;39.50;;;;;2.57;100.00;101684.63;5114997;27;45176;-77
2022/03/07 05:59:06;;;;;;;;;57.00;41.50;;;;;2.92;100.00;101756.44;5099460;27;45964;-77
2022/03/07 06:01:31;;;;;;;;;58.50;41.75;;;;;3.04;100.00;101791.13;5124250;27;45074;-76
2022/03/07 06:03:56;;;;;;;;;54.75;41.75;;;;;2.65;100.00;101725.63;5111218;27;45468;-77
2022/03/07 06:06:22;;;;;;;;;51.00;40.00;;;;;3.08;100.00;101797.31;5114191;27;45143;-77
2022/03/07 06:08:47;;;;;;;;;48.75;41.50;;;;;2.39;100.00;101679.59;5130993;27;45144;-77
2022/03/07 06:11:12;;;;;;;;;47.75;40.00;;;;;2.45;100.00;101690.22;5117787;27;45311;-79
2022/03/07 06:13:38;;;;;;;;;42.25;40.50;;;;;2.35;100.00;101665.34;5118147;27;45250;-80
2022/03/07 06:16:04;;;;;;;;;54.75;39.50;;;;;1.47;100.00;101539.09;5118590;27;45773;-78
2022/03/07 06:18:30;;;;;;;;;50.50;42.50;;;;;2.99;100.00;101792.09;5124550;27;45083;-82
2022/03/07 06:20:55;;;;;;;;;54.75;42.25;;;;;1.90;100.00;101613.41;5117644;27;45872;-80
2022/03/07 06:23:21;;;;;;;;;45.75;41.75;;;;;2.82;100.00;101777.19;5130361;27;45268;-80
2022/03/07 06:25:47;;;;;;;;;54.00;44.75;;;;;2.62;100.00;101743.59;5115466;27;45349;-82
2022/03/07 06:28:12;;;;;;;;;61.25;42.75;;;;;2.79;100.00;101769.22;5124861;27;45396;-79
2022/03/07 06:30:38;;;;;;;;;48.00;41.75;;;;;2.93;100.00;101802.97;5127111;27;45072;-82
2022/03/07 06:33:03;;;;;;;;;54.50;41.25;;;;;2.94;100.00;101807.44;5116856;27;45305;-82
2022/03/07 06:35:28;;;;;;;;;54.25;42.25;;;;;2.79;100.00;101768.34;5109690;27;45538;-82
2022/03/07 06:37:54;;;;;;;;;47.25;42.00;;;;;1.35;100.00;101515.19;5110963;27;45215;-78
2022/03/07 06:40:21;;;;;;;;;50.50;43.75;;;;;2.91;100.00;101794.97;5116264;27;45227;-79
2022/03/07 06:42:47;;;;;;;;;54.00;41.75;;;;;1.21;100.00;101500.22;5110747;27;45219;-81
2022/03/07 06:45:14;;;;;;;;;57.50;42.50;;;;;2.96;100.00;101803.81;5109673;27;45477;-79
2022/03/07 06:47:40;;;;;;;;;52.50;43.50;;;;;1.39;100.00;101557.09;5110101;27;45395;-80
2022/03/07 06:50:06;;;;;;;;;48.25;40.00;;;;;2.99;100.00;101808.22;5109728;27;45202;-79
2022/03/07 06:52:31;;;;;;;;;45.25;39.25;;;;;2.93;100.00;101819.09;5109090;27;45374;-80
2022/03/07 06:54:57;;;;;;;;;44.75;39.00;;;;;2.92;100.00;101811.97;5109866;27;45801;-78
2022/03/07 06:57:23;;;;;;;;;40.75;37.00;;;;;2.73;100.00;101772.00;5121266;27;45371;-78
2022/03/07 06:59:48;;;;;;;;;58.00;43.50;;;;;1.12;100.00;101520.94;5098930;27;45218;-77
2022/03/07 07:02:14;;;;;;;;;50.75;44.00;;;;;2.62;100.00;101752.53;5110109;27;45084;-78
2022/03/07 07:04:39;;;;;;;;;51.50;43.25;;;;;2.93;100.00;101809.22;5110049;27;45611;-77
2022/03/07 07:07:05;;;;;;;;;50.00;42.25;;;;;1.22;100.00;101539.53;5110312;27;45557;-77
2022/03/07 07:09:30;;;;;;;;;52.75;44.25;;;;;2.70;100.00;101784.63;5110259;27;45080;-77
2022/03/07 07:11:56;;;;;;;;;57.50;43.25;;;;;2.90;100.00;101809.31;5110045;27;45062;-78
2022/03/07 07:14:21;;;;;;;;;57.75;40.25;;;;;2.80;100.00;101788.91;5109225;27;45546;-77
2022/03/07 07:16:46;;;;;;;;;47.50;42.00;;;;;2.86;100.00;101807.59;5109986;27;45147;-78
2022/03/07 07:19:11;;;;;;;;;47.50;40.00;;;;;1.78;100.00;101618.09;5109231;27;45146;-78
2022/03/07 07:21:37;;;;;;;;;44.50;38.75;;;;;2.45;100.00;101744.78;5109499;27;45040;-78
2022/03/07 07:24:02;;;;;;;;;63.25;44.75;;;;;2.80;100.00;101802.34;5109817;27;45846;-77
2022/03/07 07:26:28;;;;;;;;;60.25;44.50;;;;;2.29;100.00;101722.69;5109989;27;45449;-78
2022/03/07 07:28:53;;;;;;;;;55.75;43.50;;;;;2.48;100.00;101751.88;5109857;27;45129;-79
2022/03/07 07:31:19;;;;;;;;;52.75;39.75;;;;;2.19;100.00;101694.25;5109469;27;45156;-77
2022/03/07 07:33:44;;;;;;;;;51.25;40.25;;;;;2.48;100.00;101738.47;5109719;27;45383;-77
2022/03/07 07:36:10;;;;;;;;;53.25;42.00;;;;;2.56;100.00;101775.00;5110053;27;45103;-78
2022/03/07 07:38:35;;;;;;;;;49.00;40.75;;;;;1.89;100.00;101670.66;5111490;27;45126;-76
2022/03/07 07:41:01;;;;;;;;;56.75;42.75;;;;;2.49;100.00;101754.56;5130258;27;45139;-78
2022/03/07 07:43:26;;;;;;;;;59.25;45.00;;;;;1.78;100.00;101628.81;5130574;27;45710;-77
2022/03/07 07:45:51;;;;;;;;;52.25;41.00;;;;;2.82;100.00;101811.22;5111517;27;45164;-76
2022/03/07 07:48:17;;;;;;;;;51.75;42.00;;;;;2.80;100.00;101816.63;5115114;27;45051;-77
2022/03/07 07:50:42;;;;;;;;;43.75;38.75;;;;;2.83;100.00;101813.88;5106819;27;45344;-76
2022/03/07 07:53:08;;;;;;;;;53.75;43.25;;;;;1.88;100.00;101647.44;5116490;27;45700;-76
2022/03/07 07:55:33;;;;;;;;;44.50;39.50;;;;;2.72;100.00;101785.47;5107980;27;45064;-77
2022/03/07 07:57:58;;;;;;;;;44.75;38.00;;;;;2.84;100.00;101810.31;5090078;27;45022;-77
2022/03/07 08:00:24;;;;;;;;;52.00;42.50;;;;;2.21;100.00;101694.22;5099471;27;44938;-77
2022/03/07 08:02:50;;;;;;;;;56.25;44.00;;;;;2.85;100.00;101800.44;5088360;27;45908;-77
2022/03/07 08:05:17;;;;;;;;;60.50;47.25;;;;;2.73;100.00;101777.38;5088965;27;45262;-78
2022/03/07 08:07:44;;;;;;;;;37.25;33.00;;;;;2.68;100.00;101765.81;5089378;27;45549;-77
2022/03/07 08:10:12;;;;;;;;;44.75;40.00;;;;;2.90;100.00;101812.00;5088736;27;45162;-79
2022/03/07 08:34:35;;;;;;;;;65.25;51.50;;;;;3.16;100.00;101799.88;5139368;27;45592;-77
2022/03/07 08:37:01;;;;;;;;;60.00;47.00;;;;;2.67;100.00;101704.13;5116432;27;45403;-76
2022/03/07 08:39:26;;;;;;;;;67.75;47.00;;;;;2.83;100.00;101713.63;5126254;27;45693;-77
2022/03/07 08:41:52;;;;;;;;;47.50;42.00;;;;;2.71;100.00;101685.25;5128212;27;45503;-76
2022/03/07 08:44:17;;;;;;;;;47.25;41.00;;;;;1.55;100.00;101481.78;5114001;27;45969;-77
2022/03/07 08:46:43;;;;;;;;;49.00;41.75;;;;;3.16;100.00;101725.53;5116726;27;45358;-77
2022/03/07 08:49:08;;;;;;;;;47.00;39.00;;;;;3.43;100.00;101783.16;5108277;27;45520;-76
2022/03/07 08:51:33;;;;;;;;;57.50;44.75;;;;;2.79;100.00;101659.13;5108325;27;45371;-77
2022/03/07 08:54:01;;;;;;;;;53.75;43.00;;;;;3.41;99.30;101768.00;5107808;27;45831;-78
2022/03/07 08:56:27;;;;;;;;;43.75;40.00;;;;;1.64;98.56;101447.69;5106065;27;45828;-76
2022/03/07 08:58:52;;;;;;;;;51.75;37.75;;;;;3.38;97.34;101750.13;5128077;27;45571;-79
2022/03/07 09:01:18;;;;;;;;;62.25;42.50;;;;;3.57;96.54;101782.88;5134576;27;45505;-78
2022/03/07 09:03:45;;;;;;;;;40.50;36.25;;;;;3.37;95.01;101745.69;5129943;27;47442;-77
2022/03/07 09:06:10;;;;;;;;;45.00;39.75;;;;;3.64;95.80;101784.50;5111853;27;45496;-76
2022/03/07 09:08:36;;;;;;;;;50.25;42.00;;;;;3.54;94.68;101769.50;5131460;27;45477;-75
2022/03/07 09:11:01;;;;;;;;;41.25;31.75;;;;;3.66;98.03;101785.38;5137601;27;45397;-76
2022/03/07 09:13:27;;;;;;;;;42.50;36.00;;;;;3.69;95.00;101776.34;5135091;27;47288;-75
2022/03/07 09:15:55;;;;;;;;;45.25;39.00;;;;;3.72;93.77;101773.59;5120735;27;45464;-77
2022/03/07 09:18:21;;;;;;;;;51.00;39.25;;;;;3.77;92.83;101782.44;5136573;27;45626;-75
2022/03/07 09:20:47;;;;;;;;;51.00;41.25;;;;;3.80;94.56;101764.44;5128513;27;45387;-77
2022/03/07 09:23:13;;;;;;;;;50.50;35.50;;;;;3.79;93.87;101776.09;5127564;27;45591;-76
2022/03/07 09:25:38;;;;;;;;;40.75;36.75;;;;;3.25;92.74;101659.97;5124027;27;45692;-76
2022/03/07 09:28:05;;;;;;;;;53.75;40.00;;;;;3.89;92.99;101763.34;5131511;27;45532;-76
2022/03/07 09:30:34;;;;;;;;;49.50;39.25;;;;;3.97;92.70;101768.53;5132546;27;45627;-79
2022/03/07 09:33:03;;;;;;;;;41.00;32.75;;;;;3.64;92.21;101703.84;5125321;27;46418;-76
2022/03/07 09:35:30;;;;;;;;;43.25;39.50;;;;;3.97;93.45;101738.97;5092888;27;45527;-77
2022/03/07 09:37:56;;;;;;;;;53.50;40.75;;;;;3.89;95.48;101725.66;5095242;27;45580;-76
2022/03/07 09:40:21;;;;;;;;;48.25;40.75;;;;;4.23;94.02;101771.50;5093081;27;45868;-76
2022/03/07 09:42:47;;;;;;;;;45.75;38.75;;;;;4.00;93.42;101722.72;5095571;27;47467;-77
2022/03/07 09:45:19;;;;;;;;;48.75;39.50;;;;;4.34;90.64;101765.84;5091970;27;45937;-76
2022/03/07 09:47:45;;;;;;;;;49.75;41.00;;;;;3.91;90.62;101699.63;5120578;27;45097;-74
2022/03/07 09:50:11;;;;;;;;;52.25;40.75;;;;;4.33;89.75;101759.56;5120810;27;45885;-74
2022/03/07 09:52:37;;;;;;;;;34.25;30.50;;;;;3.95;89.22;101689.66;5122103;27;45794;-74
2022/03/07 09:55:04;;;;;;;;;46.25;38.75;;;;;4.41;89.69;101762.97;5118534;27;45378;-75
2022/03/07 09:57:30;;;;;;;;;51.00;41.25;;;;;3.73;87.26;101632.84;5100077;27;45444;-75
2022/03/07 09:59:55;;;;;;;;;54.25;41.25;;;;;4.50;85.80;101759.13;5113140;27;45953;-75
2022/03/07 10:02:24;;;;;;;;;46.00;41.25;;;;;4.46;86.32;101740.41;5109713;27;45659;-76
2022/03/07 10:04:51;;;;;;;;;48.00;41.25;;;;;4.56;86.30;101750.94;5092100;27;45744;-76
2022/03/07 10:07:16;;;;;;;;;54.00;42.25;;;;;3.87;86.29;101622.63;5092969;27;45706;-77
2022/03/07 10:09:42;;;;;;;;;53.75;41.75;;;;;4.14;84.41;101664.94;5092255;27;45556;-75
2022/03/07 10:12:08;;;;;;;;;45.00;39.00;;;;;4.64;88.12;101745.31;5098226;27;46049;-75
2022/03/07 10:14:37;;;;;;;;;48.75;41.50;;;;;4.67;83.40;101740.75;5103805;27;45229;-76
2022/03/07 10:17:03;;;;;;;;;39.50;36.75;;;;;4.49;83.53;101710.72;5092266;27;45578;-75
2022/03/07 10:19:29;;;;;;;;;44.75;37.50;;;;;4.75;89.54;101742.34;5092636;27;45630;-76
2022/03/07 10:22:00;;;;;;;;;47.25;39.50;;;;;4.77;83.27;101740.50;5121801;27;46926;-78
2022/03/07 10:24:34;;;;;;;;;41.75;34.25;;;;;3.31;81.54;101486.00;5119146;27;45611;-76
2022/03/07 10:27:00;;;;;;;;;43.50;38.00;;;;;4.80;83.70;101726.94;5119658;27;45412;-76
2022/03/07 10:29:25;;;;;;;;;47.25;36.75;;;;;4.53;80.80;101688.19;5124582;27;45646;-75
2022/03/07 10:31:50;;;;;;;;;37.50;35.75;;;;;3.90;78.72;101572.31;5134629;27;46085;-76
2022/03/07 10:34:16;;;;;;;;;44.00;38.25;;;;;4.71;78.00;101697.56;5093165;27;45448;-76
2022/03/07 10:36:45;;;;;;;;;47.50;37.50;;;;;3.89;81.81;101548.13;5100001;27;45792;-76
2022/03/07 10:39:15;;;;;;;;;41.50;37.25;;;;;4.80;81.06;101690.09;5116330;27;45299;-76
2022/03/07 10:41:44;;;;;;;;;43.75;38.25;;;;;4.97;77.02;101726.47;5112517;27;45567;-77
2022/03/07 10:44:22;;;;;;;;;51.75;44.50;;;;;3.43;78.64;101462.44;5112139;27;45534;-76
2022/03/07 10:46:47;;;;;;;;;49.75;40.00;;;;;4.80;79.01;101681.13;5110371;27;45489;-76
2022/03/07 10:49:16;;;;;;;;;48.25;39.50;;;;;4.33;79.46;101583.72;5097616;27;45603;-76
2022/03/07 10:51:51;;;;;;;;;44.00;37.50;;;;;3.46;78.89;101430.97;5091170;27;45855;-79
2022/03/07 10:54:19;;;;;;;;;40.25;33.00;;;;;5.18;80.29;101728.56;5093833;27;45404;-76
2022/03/07 10:56:50;;;;;;;;;38.25;34.00;;;;;4.81;77.77;101643.38;5092940;27;45488;-77
2022/03/07 10:59:29;;;;;;;;;45.00;37.50;;;;;5.24;77.28;101714.91;5091566;27;45640;-77
2022/03/07 11:02:06;;;;;;;;;38.50;33.25;;;;;5.25;73.55;101702.31;5102802;27;45509;-76
2022/03/07 11:04:33;;;;;;;;;38.50;35.00;;;;;4.58;76.66;101575.84;5097988;27;45110;-76
2022/03/07 11:06:59;;;;;;;;;45.75;37.25;;;;;5.34;74.76;101704.72;5092160;27;45543;-76
2022/03/07 11:09:24;;;;;;;;;44.25;36.50;;;;;5.05;83.46;101648.97;5099269;27;45391;-77
2022/03/07 11:11:51;;;;;;;;;45.00;34.25;;;;;5.16;75.95;101655.81;5105038;27;45629;-76
2022/03/07 11:14:17;;;;;;;;;34.75;32.00;;;;;5.43;75.64;101678.38;5111889;27;46108;-77
2022/03/07 11:16:45;;;;;;;;;50.00;38.00;;;;;5.20;76.42;101640.44;5103242;27;45425;-78
2022/03/07 11:19:13;;;;;;;;;34.50;31.25;;;;;5.11;77.30;101617.31;5093298;27;45408;-75
2022/03/07 11:21:41;;;;;;;;;39.75;36.00;;;;;4.76;72.53;101555.53;5098748;27;45527;-74
2022/03/07 11:24:07;;;;;;;;;41.50;38.00;;;;;5.29;77.92;101640.16;5090717;27;45452;-76
2022/03/07 11:26:33;;;;;;;;;37.50;32.75;;;;;4.42;70.89;101470.41;5094418;27;45438;-75
2022/03/07 11:28:58;;;;;;;;;43.25;37.25;;;;;5.39;71.71;101638.94;5104789;27;45850;-76